Terminal Aerodrome Forecast
Issued by NWS

Home | Current Version | Previous Version | Graphics & Text | Print | Product List | Glossary On
Versions: 1 2 3 4 5 6 7 8 9 10 11 12
437
FTUS43 KMPX 211138
TAFRNH
TAF
KRNH 211138Z 2112/2212 VRB03KT P6SM FEW200
     FM211600 15007KT P6SM BKN150
     FM212300 16007KT P6SM VCSH BKN090
     FM220400 16006KT P6SM VCSH BKN040
     FM220600 17005KT 5SM BR BKN020=

USA.gov is the U.S. government's official web portal to all federal, state and local government web resources and services.